Burton-on-Trent, United Kingdom
Current Conditions -  °F | °C
As of 5:50 AM on Friday 21 Nov 2014 (Local Time) from EGNX Reporting Station
Haze Haze  
Wind Chill: 41°   Ceiling: 2800
Heat Index: 41°   Visibility: 1.5mi
Dew Point: 41°   Wind: 3mph
Humidity: 100%   Direction: NA
Pressure: 30.15"   Gusts: NA
Location:  52.79°N, 1.66°W
Report Text: EGNX 210450Z VRB03KT 2500 BR BKN028 05/05 Q1021
Loading
Personal Weather Stations






























Interactive Weather Map New forecast layout! Learn more

10-Day Weather Forecast

Advertisements
Track Severe Weather on mobile